sensor_id;sensor_type;location;lat;lon;timestamp;P1;durP1;ratioP1;P2;durP2;ratioP2
65535;SDS011;52145;49.342;9.116;2023-02-28T00:02:13;5.72;;;2.72;;
65535;SDS011;52145;49.342;9.116;2023-02-28T00:04:39;7.57;;;3.22;;
65535;SDS011;52145;49.342;9.116;2023-02-28T00:07:04;5.88;;;2.75;;
65535;SDS011;52145;49.342;9.116;2023-02-28T00:09:30;4.60;;;2.63;;
65535;SDS011;52145;49.342;9.116;2023-02-28T00:11:55;4.25;;;2.53;;
65535;SDS011;52145;49.342;9.116;2023-02-28T00:14:21;6.65;;;2.85;;
65535;SDS011;52145;49.342;9.116;2023-02-28T00:16:47;4.88;;;2.60;;
65535;SDS011;52145;49.342;9.116;2023-02-28T00:19:12;5.50;;;3.15;;
65535;SDS011;52145;49.342;9.116;2023-02-28T00:21:38;5.85;;;3.20;;
65535;SDS011;52145;49.342;9.116;2023-02-28T00:24:05;7.00;;;2.78;;
65535;SDS011;52145;49.342;9.116;2023-02-28T00:26:31;5.28;;;3.30;;
65535;SDS011;52145;49.342;9.116;2023-02-28T00:28:57;6.22;;;3.85;;
65535;SDS011;52145;49.342;9.116;2023-02-28T00:31:23;5.10;;;2.90;;
65535;SDS011;52145;49.342;9.116;2023-02-28T00:33:48;5.75;;;2.75;;
65535;SDS011;52145;49.342;9.116;2023-02-28T00:36:15;6.93;;;3.00;;
65535;SDS011;52145;49.342;9.116;2023-02-28T00:38:41;6.10;;;3.10;;
65535;SDS011;52145;49.342;9.116;2023-02-28T00:41:07;5.03;;;3.15;;
65535;SDS011;52145;49.342;9.116;2023-02-28T00:43:33;6.18;;;3.10;;
65535;SDS011;52145;49.342;9.116;2023-02-28T00:46:00;5.07;;;3.05;;
65535;SDS011;52145;49.342;9.116;2023-02-28T00:48:26;7.28;;;3.20;;
65535;SDS011;52145;49.342;9.116;2023-02-28T00:50:52;5.25;;;3.13;;
65535;SDS011;52145;49.342;9.116;2023-02-28T00:53:18;5.38;;;2.92;;
65535;SDS011;52145;49.342;9.116;2023-02-28T00:55:43;6.10;;;2.92;;
65535;SDS011;52145;49.342;9.116;2023-02-28T00:58:09;6.00;;;2.97;;
65535;SDS011;52145;49.342;9.116;2023-02-28T01:00:34;7.80;;;4.28;;
65535;SDS011;52145;49.342;9.116;2023-02-28T01:03:00;7.43;;;3.28;;
65535;SDS011;52145;49.342;9.116;2023-02-28T01:05:25;4.70;;;2.67;;
65535;SDS011;52145;49.342;9.116;2023-02-28T01:14:09;4.97;;;2.92;;
65535;SDS011;52145;49.342;9.116;2023-02-28T01:16:38;5.35;;;2.85;;
65535;SDS011;52145;49.342;9.116;2023-02-28T01:19:03;6.43;;;2.97;;
65535;SDS011;52145;49.342;9.116;2023-02-28T01:21:29;5.03;;;2.97;;
65535;SDS011;52145;49.342;9.116;2023-02-28T01:23:56;6.22;;;3.63;;
65535;SDS011;52145;49.342;9.116;2023-02-28T01:26:22;6.55;;;3.33;;
65535;SDS011;52145;49.342;9.116;2023-02-28T01:28:48;6.18;;;3.10;;
65535;SDS011;52145;49.342;9.116;2023-02-28T01:31:15;4.90;;;3.08;;
65535;SDS011;52145;49.342;9.116;2023-02-28T01:33:41;5.88;;;3.90;;
65535;SDS011;52145;49.342;9.116;2023-02-28T01:36:09;7.55;;;3.80;;
65535;SDS011;52145;49.342;9.116;2023-02-28T01:38:40;6.32;;;3.30;;
65535;SDS011;52145;49.342;9.116;2023-02-28T01:41:06;6.07;;;3.25;;
65535;SDS011;52145;49.342;9.116;2023-02-28T01:46:10;7.53;;;3.70;;
65535;SDS011;52145;49.342;9.116;2023-02-28T01:48:44;5.03;;;3.28;;
65535;SDS011;52145;49.342;9.116;2023-02-28T01:51:14;6.80;;;3.75;;
65535;SDS011;52145;49.342;9.116;2023-02-28T01:53:45;6.75;;;3.88;;
65535;SDS011;52145;49.342;9.116;2023-02-28T01:56:17;5.95;;;3.40;;
65535;SDS011;52145;49.342;9.116;2023-02-28T01:58:48;7.20;;;3.42;;
65535;SDS011;52145;49.342;9.116;2023-02-28T02:01:15;5.72;;;3.42;;
65535;SDS011;52145;49.342;9.116;2023-02-28T02:03:46;5.45;;;2.97;;
65535;SDS011;52145;49.342;9.116;2023-02-28T02:06:23;5.45;;;3.60;;
65535;SDS011;52145;49.342;9.116;2023-02-28T02:08:51;8.82;;;3.90;;
65535;SDS011;52145;49.342;9.116;2023-02-28T02:11:17;6.45;;;3.47;;
65535;SDS011;52145;49.342;9.116;2023-02-28T02:19:41;6.90;;;3.63;;
65535;SDS011;52145;49.342;9.116;2023-02-28T02:28:26;7.47;;;3.80;;
65535;SDS011;52145;49.342;9.116;2023-02-28T02:42:16;5.70;;;3.15;;
65535;SDS011;52145;49.342;9.116;2023-02-28T02:44:59;6.25;;;3.28;;
65535;SDS011;52145;49.342;9.116;2023-02-28T02:47:30;7.25;;;3.75;;
65535;SDS011;52145;49.342;9.116;2023-02-28T02:49:59;6.38;;;3.72;;
65535;SDS011;52145;49.342;9.116;2023-02-28T02:52:31;6.03;;;3.33;;
65535;SDS011;52145;49.342;9.116;2023-02-28T02:55:02;8.10;;;4.00;;
65535;SDS011;52145;49.342;9.116;2023-02-28T02:57:34;6.38;;;3.53;;
65535;SDS011;52145;49.342;9.116;2023-02-28T03:00:12;6.30;;;3.20;;
65535;SDS011;52145;49.342;9.116;2023-02-28T03:02:41;8.15;;;4.47;;
65535;SDS011;52145;49.342;9.116;2023-02-28T03:05:09;9.10;;;4.82;;
65535;SDS011;52145;49.342;9.116;2023-02-28T03:07:48;6.95;;;3.70;;
65535;SDS011;52145;49.342;9.116;2023-02-28T03:10:33;8.00;;;4.32;;
65535;SDS011;52145;49.342;9.116;2023-02-28T03:13:10;8.18;;;4.57;;
65535;SDS011;52145;49.342;9.116;2023-02-28T03:18:55;8.68;;;3.88;;
65535;SDS011;52145;49.342;9.116;2023-02-28T03:24:48;6.72;;;4.30;;
65535;SDS011;52145;49.342;9.116;2023-02-28T03:32:50;7.15;;;4.00;;
65535;SDS011;52145;49.342;9.116;2023-02-28T03:35:22;8.13;;;4.00;;
65535;SDS011;52145;49.342;9.116;2023-02-28T03:37:53;7.00;;;4.60;;
65535;SDS011;52145;49.342;9.116;2023-02-28T03:40:26;8.70;;;4.75;;
65535;SDS011;52145;49.342;9.116;2023-02-28T03:42:57;7.00;;;3.65;;
65535;SDS011;52145;49.342;9.116;2023-02-28T03:45:30;9.60;;;4.50;;
65535;SDS011;52145;49.342;9.116;2023-02-28T03:48:02;7.38;;;4.03;;
65535;SDS011;52145;49.342;9.116;2023-02-28T03:50:42;8.10;;;4.70;;
65535;SDS011;52145;49.342;9.116;2023-02-28T03:53:12;7.50;;;4.03;;
65535;SDS011;52145;49.342;9.116;2023-02-28T07:58:58;9.00;;;5.50;;
65535;SDS011;52145;49.342;9.116;2023-02-28T08:01:23;10.15;;;5.25;;
65535;SDS011;52145;49.342;9.116;2023-02-28T08:03:49;10.90;;;5.47;;
65535;SDS011;52145;49.342;9.116;2023-02-28T08:06:16;10.75;;;5.70;;
65535;SDS011;52145;49.342;9.116;2023-02-28T08:08:46;9.05;;;5.50;;
65535;SDS011;52145;49.342;9.116;2023-02-28T08:13:37;9.88;;;5.65;;
65535;SDS011;52145;49.342;9.116;2023-02-28T08:16:03;9.82;;;5.95;;
65535;SDS011;52145;49.342;9.116;2023-02-28T08:18:29;12.02;;;6.70;;
65535;SDS011;52145;49.342;9.116;2023-02-28T08:20:54;9.82;;;5.35;;
65535;SDS011;52145;49.342;9.116;2023-02-28T08:23:21;10.07;;;6.43;;
65535;SDS011;52145;49.342;9.116;2023-02-28T08:25:56;10.88;;;6.25;;
65535;SDS011;52145;49.342;9.116;2023-02-28T08:28:22;12.93;;;5.97;;
65535;SDS011;52145;49.342;9.116;2023-02-28T08:30:47;11.48;;;5.60;;
65535;SDS011;52145;49.342;9.116;2023-02-28T08:33:14;11.15;;;6.07;;
65535;SDS011;52145;49.342;9.116;2023-02-28T08:35:39;9.95;;;5.53;;
65535;SDS011;52145;49.342;9.116;2023-02-28T08:38:05;11.85;;;6.20;;
65535;SDS011;52145;49.342;9.116;2023-02-28T08:40:30;8.77;;;5.57;;
65535;SDS011;52145;49.342;9.116;2023-02-28T08:42:56;10.68;;;5.63;;
65535;SDS011;52145;49.342;9.116;2023-02-28T08:45:21;9.40;;;6.15;;
65535;SDS011;52145;49.342;9.116;2023-02-28T08:47:47;8.63;;;5.28;;
65535;SDS011;52145;49.342;9.116;2023-02-28T08:50:12;9.95;;;5.90;;
65535;SDS011;52145;49.342;9.116;2023-02-28T08:52:41;12.77;;;5.60;;
65535;SDS011;52145;49.342;9.116;2023-02-28T08:55:08;10.95;;;5.55;;
65535;SDS011;52145;49.342;9.116;2023-02-28T08:57:34;9.18;;;5.40;;
65535;SDS011;52145;49.342;9.116;2023-02-28T09:00:00;9.27;;;5.88;;
65535;SDS011;52145;49.342;9.116;2023-02-28T09:02:29;11.50;;;5.95;;
65535;SDS011;52145;49.342;9.116;2023-02-28T09:04:55;9.45;;;5.70;;
65535;SDS011;52145;49.342;9.116;2023-02-28T09:07:20;11.80;;;6.10;;
65535;SDS011;52145;49.342;9.116;2023-02-28T09:09:46;9.75;;;6.18;;
65535;SDS011;52145;49.342;9.116;2023-02-28T09:12:21;8.90;;;5.97;;
65535;SDS011;52145;49.342;9.116;2023-02-28T09:14:50;11.07;;;5.90;;
65535;SDS011;52145;49.342;9.116;2023-02-28T09:17:16;10.75;;;5.78;;
65535;SDS011;52145;49.342;9.116;2023-02-28T09:19:42;9.93;;;6.20;;
65535;SDS011;52145;49.342;9.116;2023-02-28T09:22:08;9.85;;;5.93;;
65535;SDS011;52145;49.342;9.116;2023-02-28T09:24:35;10.77;;;5.45;;
65535;SDS011;52145;49.342;9.116;2023-02-28T09:27:01;10.27;;;6.82;;
65535;SDS011;52145;49.342;9.116;2023-02-28T09:29:26;10.35;;;5.70;;
65535;SDS011;52145;49.342;9.116;2023-02-28T09:31:52;9.30;;;6.00;;
65535;SDS011;52145;49.342;9.116;2023-02-28T09:58:44;9.32;;;6.00;;
65535;SDS011;52145;49.342;9.116;2023-02-28T10:06:33;10.48;;;6.53;;
65535;SDS011;52145;49.342;9.116;2023-02-28T10:11:32;11.40;;;6.45;;
65535;SDS011;52145;49.342;9.116;2023-02-28T10:14:13;11.57;;;6.00;;
65535;SDS011;52145;49.342;9.116;2023-02-28T10:16:58;10.27;;;6.38;;
65535;SDS011;52145;49.342;9.116;2023-02-28T10:19:40;9.45;;;5.80;;
65535;SDS011;52145;49.342;9.116;2023-02-28T10:22:13;10.55;;;6.60;;
65535;SDS011;52145;49.342;9.116;2023-02-28T10:24:46;11.23;;;6.82;;
65535;SDS011;52145;49.342;9.116;2023-02-28T10:27:16;12.20;;;6.57;;
65535;SDS011;52145;49.342;9.116;2023-02-28T10:29:51;15.57;;;6.25;;
65535;SDS011;52145;49.342;9.116;2023-02-28T10:32:28;10.98;;;6.43;;
65535;SDS011;52145;49.342;9.116;2023-02-28T10:37:45;10.00;;;6.65;;
65535;SDS011;52145;49.342;9.116;2023-02-28T10:43:01;14.10;;;7.53;;
65535;SDS011;52145;49.342;9.116;2023-02-28T10:45:31;9.77;;;6.57;;
65535;SDS011;52145;49.342;9.116;2023-02-28T10:48:01;11.18;;;7.15;;
65535;SDS011;52145;49.342;9.116;2023-02-28T10:50:28;12.30;;;6.95;;
65535;SDS011;52145;49.342;9.116;2023-02-28T11:04:17;11.38;;;6.82;;
65535;SDS011;52145;49.342;9.116;2023-02-28T11:06:58;11.00;;;6.60;;
65535;SDS011;52145;49.342;9.116;2023-02-28T11:11:54;10.23;;;6.25;;
65535;SDS011;52145;49.342;9.116;2023-02-28T11:14:27;11.57;;;6.65;;
65535;SDS011;52145;49.342;9.116;2023-02-28T11:16:54;9.82;;;6.03;;
65535;SDS011;52145;49.342;9.116;2023-02-28T11:19:24;10.23;;;5.78;;
65535;SDS011;52145;49.342;9.116;2023-02-28T11:21:55;10.02;;;6.32;;
65535;SDS011;52145;49.342;9.116;2023-02-28T11:27:02;11.90;;;6.57;;
65535;SDS011;52145;49.342;9.116;2023-02-28T11:29:29;9.32;;;5.45;;
65535;SDS011;52145;49.342;9.116;2023-02-28T11:34:38;12.80;;;6.43;;
65535;SDS011;52145;49.342;9.116;2023-02-28T11:37:17;11.25;;;6.68;;
65535;SDS011;52145;49.342;9.116;2023-02-28T11:39:44;9.32;;;6.18;;
65535;SDS011;52145;49.342;9.116;2023-02-28T11:48:37;11.00;;;7.15;;
65535;SDS011;52145;49.342;9.116;2023-02-28T11:51:13;9.80;;;6.07;;
65535;SDS011;52145;49.342;9.116;2023-02-28T12:02:20;12.30;;;6.95;;
65535;SDS011;52145;49.342;9.116;2023-02-28T12:07:46;10.40;;;6.93;;
65535;SDS011;52145;49.342;9.116;2023-02-28T12:13:12;9.95;;;6.88;;
65535;SDS011;52145;49.342;9.116;2023-02-28T12:15:53;11.50;;;7.47;;
65535;SDS011;52145;49.342;9.116;2023-02-28T12:18:52;8.70;;;6.72;;
65535;SDS011;52145;49.342;9.116;2023-02-28T12:21:43;9.02;;;6.35;;
65535;SDS011;52145;49.342;9.116;2023-02-28T12:26:43;9.90;;;6.82;;
65535;SDS011;52145;49.342;9.116;2023-02-28T12:29:12;9.30;;;6.47;;
65535;SDS011;52145;49.342;9.116;2023-02-28T12:31:49;11.30;;;6.38;;
65535;SDS011;52145;49.342;9.116;2023-02-28T12:34:20;11.68;;;6.95;;
65535;SDS011;52145;49.342;9.116;2023-02-28T12:36:50;11.13;;;6.57;;
65535;SDS011;52145;49.342;9.116;2023-02-28T12:39:20;10.13;;;6.95;;
65535;SDS011;52145;49.342;9.116;2023-02-28T12:41:59;13.20;;;7.15;;
65535;SDS011;52145;49.342;9.116;2023-02-28T12:44:37;11.90;;;7.20;;
65535;SDS011;52145;49.342;9.116;2023-02-28T12:47:12;9.73;;;6.95;;
65535;SDS011;52145;49.342;9.116;2023-02-28T12:49:45;11.10;;;7.15;;
65535;SDS011;52145;49.342;9.116;2023-02-28T12:52:17;13.75;;;8.02;;
65535;SDS011;52145;49.342;9.116;2023-02-28T12:55:14;10.32;;;7.32;;
65535;SDS011;52145;49.342;9.116;2023-02-28T13:00:28;11.93;;;6.40;;
65535;SDS011;52145;49.342;9.116;2023-02-28T13:08:33;11.40;;;7.60;;
65535;SDS011;52145;49.342;9.116;2023-02-28T13:11:29;9.20;;;6.93;;
65535;SDS011;52145;49.342;9.116;2023-02-28T13:13:58;10.85;;;6.85;;
65535;SDS011;52145;49.342;9.116;2023-02-28T13:16:47;10.43;;;7.20;;
65535;SDS011;52145;49.342;9.116;2023-02-28T13:19:22;14.30;;;8.52;;
65535;SDS011;52145;49.342;9.116;2023-02-28T13:21:51;12.77;;;6.97;;
65535;SDS011;52145;49.342;9.116;2023-02-28T13:33:36;10.10;;;6.47;;
65535;SDS011;52145;49.342;9.116;2023-02-28T13:38:44;12.18;;;7.50;;
65535;SDS011;52145;49.342;9.116;2023-02-28T13:46:32;11.52;;;7.03;;
65535;SDS011;52145;49.342;9.116;2023-02-28T13:49:23;9.43;;;7.18;;
65535;SDS011;52145;49.342;9.116;2023-02-28T13:51:53;13.40;;;8.25;;
65535;SDS011;52145;49.342;9.116;2023-02-28T13:57:24;10.27;;;6.90;;
65535;SDS011;52145;49.342;9.116;2023-02-28T14:02:45;10.52;;;7.32;;
65535;SDS011;52145;49.342;9.116;2023-02-28T14:05:29;12.82;;;7.60;;
65535;SDS011;52145;49.342;9.116;2023-02-28T14:07:58;10.90;;;7.35;;
65535;SDS011;52145;49.342;9.116;2023-02-28T14:10:30;12.57;;;7.68;;
65535;SDS011;52145;49.342;9.116;2023-02-28T14:12:59;13.18;;;7.68;;
65535;SDS011;52145;49.342;9.116;2023-02-28T14:18:14;11.35;;;7.60;;
65535;SDS011;52145;49.342;9.116;2023-02-28T14:20:41;9.82;;;6.95;;
65535;SDS011;52145;49.342;9.116;2023-02-28T14:23:19;10.77;;;7.32;;
65535;SDS011;52145;49.342;9.116;2023-02-28T14:26:07;9.40;;;6.43;;
65535;SDS011;52145;49.342;9.116;2023-02-28T14:31:34;13.00;;;7.05;;
65535;SDS011;52145;49.342;9.116;2023-02-28T14:36:50;8.88;;;6.25;;
65535;SDS011;52145;49.342;9.116;2023-02-28T14:39:20;12.07;;;7.05;;
65535;SDS011;52145;49.342;9.116;2023-02-28T14:41:50;10.02;;;6.75;;
65535;SDS011;52145;49.342;9.116;2023-02-28T14:46:44;9.85;;;6.57;;
65535;SDS011;52145;49.342;9.116;2023-02-28T14:49:13;10.25;;;6.40;;
65535;SDS011;52145;49.342;9.116;2023-02-28T14:51:47;11.30;;;6.70;;
65535;SDS011;52145;49.342;9.116;2023-02-28T14:54:15;9.07;;;6.40;;
65535;SDS011;52145;49.342;9.116;2023-02-28T14:56:43;11.07;;;6.28;;
65535;SDS011;52145;49.342;9.116;2023-02-28T14:59:32;9.90;;;7.00;;
65535;SDS011;52145;49.342;9.116;2023-02-28T15:04:43;10.55;;;6.22;;
65535;SDS011;52145;49.342;9.116;2023-02-28T15:07:46;10.38;;;6.65;;
65535;SDS011;52145;49.342;9.116;2023-02-28T15:12:39;9.32;;;6.53;;
65535;SDS011;52145;49.342;9.116;2023-02-28T15:15:05;9.50;;;6.65;;
65535;SDS011;52145;49.342;9.116;2023-02-28T15:17:38;9.45;;;6.43;;
65535;SDS011;52145;49.342;9.116;2023-02-28T15:20:05;11.60;;;6.75;;
65535;SDS011;52145;49.342;9.116;2023-02-28T15:22:36;10.90;;;6.63;;
65535;SDS011;52145;49.342;9.116;2023-02-28T15:25:03;10.30;;;6.32;;
65535;SDS011;52145;49.342;9.116;2023-02-28T15:27:31;9.95;;;7.45;;
65535;SDS011;52145;49.342;9.116;2023-02-28T15:29:59;10.77;;;6.93;;
65535;SDS011;52145;49.342;9.116;2023-02-28T15:32:30;10.07;;;7.25;;
65535;SDS011;52145;49.342;9.116;2023-02-28T15:35:25;11.83;;;7.30;;
65535;SDS011;52145;49.342;9.116;2023-02-28T15:37:54;11.07;;;7.85;;
65535;SDS011;52145;49.342;9.116;2023-02-28T15:48:38;12.52;;;7.90;;
65535;SDS011;52145;49.342;9.116;2023-02-28T15:53:47;12.50;;;7.82;;
65535;SDS011;52145;49.342;9.116;2023-02-28T15:56:27;16.42;;;8.15;;
65535;SDS011;52145;49.342;9.116;2023-02-28T15:58:59;11.55;;;7.75;;
65535;SDS011;52145;49.342;9.116;2023-02-28T16:01:30;12.90;;;7.00;;
65535;SDS011;52145;49.342;9.116;2023-02-28T16:04:01;12.40;;;7.20;;
65535;SDS011;52145;49.342;9.116;2023-02-28T16:06:31;10.63;;;7.53;;
65535;SDS011;52145;49.342;9.116;2023-02-28T16:08:57;13.02;;;8.00;;
65535;SDS011;52145;49.342;9.116;2023-02-28T16:11:23;11.35;;;7.15;;
65535;SDS011;52145;49.342;9.116;2023-02-28T16:13:49;12.30;;;7.50;;
65535;SDS011;52145;49.342;9.116;2023-02-28T16:16:17;12.05;;;7.88;;
65535;SDS011;52145;49.342;9.116;2023-02-28T16:18:44;13.63;;;7.75;;
65535;SDS011;52145;49.342;9.116;2023-02-28T16:21:09;11.48;;;7.88;;
65535;SDS011;52145;49.342;9.116;2023-02-28T16:23:35;14.35;;;8.02;;
65535;SDS011;52145;49.342;9.116;2023-02-28T16:26:02;12.52;;;8.27;;
65535;SDS011;52145;49.342;9.116;2023-02-28T16:28:29;12.98;;;7.75;;
65535;SDS011;52145;49.342;9.116;2023-02-28T16:30:59;12.30;;;7.75;;
65535;SDS011;52145;49.342;9.116;2023-02-28T16:33:27;14.45;;;7.78;;
65535;SDS011;52145;49.342;9.116;2023-02-28T16:35:53;14.18;;;8.13;;
65535;SDS011;52145;49.342;9.116;2023-02-28T16:38:19;14.30;;;8.32;;
65535;SDS011;52145;49.342;9.116;2023-02-28T16:40:44;12.45;;;8.07;;
65535;SDS011;52145;49.342;9.116;2023-02-28T16:43:15;12.90;;;8.07;;
65535;SDS011;52145;49.342;9.116;2023-02-28T16:45:47;14.00;;;9.07;;
65535;SDS011;52145;49.342;9.116;2023-02-28T16:48:14;11.73;;;7.85;;
65535;SDS011;52145;49.342;9.116;2023-02-28T16:50:41;13.00;;;7.70;;
65535;SDS011;52145;49.342;9.116;2023-02-28T16:53:09;14.82;;;8.02;;
65535;SDS011;52145;49.342;9.116;2023-02-28T16:55:35;13.88;;;8.35;;
65535;SDS011;52145;49.342;9.116;2023-02-28T16:58:01;13.02;;;7.43;;
65535;SDS011;52145;49.342;9.116;2023-02-28T17:00:27;12.85;;;8.23;;
65535;SDS011;52145;49.342;9.116;2023-02-28T17:02:54;12.27;;;8.00;;
65535;SDS011;52145;49.342;9.116;2023-02-28T17:05:21;13.38;;;8.38;;
65535;SDS011;52145;49.342;9.116;2023-02-28T17:07:50;11.38;;;7.38;;
65535;SDS011;52145;49.342;9.116;2023-02-28T17:10:26;12.00;;;7.90;;
65535;SDS011;52145;49.342;9.116;2023-02-28T17:12:52;11.77;;;7.38;;
65535;SDS011;52145;49.342;9.116;2023-02-28T17:15:18;12.50;;;7.55;;
65535;SDS011;52145;49.342;9.116;2023-02-28T17:17:44;13.23;;;7.10;;
65535;SDS011;52145;49.342;9.116;2023-02-28T17:20:18;12.45;;;7.47;;
65535;SDS011;52145;49.342;9.116;2023-02-28T17:22:51;15.40;;;7.80;;
65535;SDS011;52145;49.342;9.116;2023-02-28T17:25:20;12.35;;;8.02;;
65535;SDS011;52145;49.342;9.116;2023-02-28T17:27:45;12.85;;;7.75;;
65535;SDS011;52145;49.342;9.116;2023-02-28T17:30:18;13.55;;;8.50;;
65535;SDS011;52145;49.342;9.116;2023-02-28T17:32:46;13.60;;;7.80;;
65535;SDS011;52145;49.342;9.116;2023-02-28T17:35:12;12.10;;;7.82;;
65535;SDS011;52145;49.342;9.116;2023-02-28T17:37:38;12.95;;;7.15;;
65535;SDS011;52145;49.342;9.116;2023-02-28T17:40:04;12.57;;;7.93;;
65535;SDS011;52145;49.342;9.116;2023-02-28T17:42:30;14.00;;;8.05;;
65535;SDS011;52145;49.342;9.116;2023-02-28T17:44:56;12.20;;;7.38;;
65535;SDS011;52145;49.342;9.116;2023-02-28T17:47:22;12.73;;;7.88;;
65535;SDS011;52145;49.342;9.116;2023-02-28T17:49:47;13.55;;;7.82;;
65535;SDS011;52145;49.342;9.116;2023-02-28T17:52:13;13.15;;;7.68;;
65535;SDS011;52145;49.342;9.116;2023-02-28T17:54:38;11.98;;;7.15;;
65535;SDS011;52145;49.342;9.116;2023-02-28T17:57:04;14.75;;;8.77;;
65535;SDS011;52145;49.342;9.116;2023-02-28T17:59:29;12.75;;;7.97;;
65535;SDS011;52145;49.342;9.116;2023-02-28T18:01:59;14.57;;;8.50;;
65535;SDS011;52145;49.342;9.116;2023-02-28T18:04:25;14.70;;;7.80;;
65535;SDS011;52145;49.342;9.116;2023-02-28T18:06:52;13.52;;;8.55;;
65535;SDS011;52145;49.342;9.116;2023-02-28T18:09:21;15.82;;;9.23;;
65535;SDS011;52145;49.342;9.116;2023-02-28T18:11:50;16.20;;;9.25;;
65535;SDS011;52145;49.342;9.116;2023-02-28T18:14:18;16.75;;;9.05;;
65535;SDS011;52145;49.342;9.116;2023-02-28T18:16:47;18.85;;;10.10;;
65535;SDS011;52145;49.342;9.116;2023-02-28T18:19:13;16.23;;;9.65;;
65535;SDS011;52145;49.342;9.116;2023-02-28T18:21:50;14.07;;;9.05;;
65535;SDS011;52145;49.342;9.116;2023-02-28T18:24:18;13.98;;;8.27;;
65535;SDS011;52145;49.342;9.116;2023-02-28T18:26:44;21.35;;;10.30;;
65535;SDS011;52145;49.342;9.116;2023-02-28T18:29:15;16.45;;;9.85;;
65535;SDS011;52145;49.342;9.116;2023-02-28T18:31:52;16.55;;;10.05;;
65535;SDS011;52145;49.342;9.116;2023-02-28T18:34:19;17.58;;;10.85;;
65535;SDS011;52145;49.342;9.116;2023-02-28T18:36:45;19.10;;;10.77;;
65535;SDS011;52145;49.342;9.116;2023-02-28T18:39:12;19.55;;;9.82;;
65535;SDS011;52145;49.342;9.116;2023-02-28T18:41:38;18.67;;;10.10;;
65535;SDS011;52145;49.342;9.116;2023-02-28T18:44:04;17.85;;;10.18;;
65535;SDS011;52145;49.342;9.116;2023-02-28T18:46:30;22.58;;;11.23;;
65535;SDS011;52145;49.342;9.116;2023-02-28T18:48:56;19.75;;;10.93;;
65535;SDS011;52145;49.342;9.116;2023-02-28T18:51:23;19.30;;;11.02;;
65535;SDS011;52145;49.342;9.116;2023-02-28T18:53:50;17.63;;;11.20;;
65535;SDS011;52145;49.342;9.116;2023-02-28T18:56:17;18.85;;;11.05;;
65535;SDS011;52145;49.342;9.116;2023-02-28T18:58:43;18.75;;;10.50;;
65535;SDS011;52145;49.342;9.116;2023-02-28T19:01:13;21.77;;;11.68;;
65535;SDS011;52145;49.342;9.116;2023-02-28T19:03:41;18.40;;;9.55;;
65535;SDS011;52145;49.342;9.116;2023-02-28T19:06:06;18.38;;;10.82;;
65535;SDS011;52145;49.342;9.116;2023-02-28T19:08:33;17.50;;;9.65;;
65535;SDS011;52145;49.342;9.116;2023-02-28T19:10:58;17.95;;;10.05;;
65535;SDS011;52145;49.342;9.116;2023-02-28T19:13:24;17.58;;;10.48;;
65535;SDS011;52145;49.342;9.116;2023-02-28T19:15:49;18.83;;;11.07;;
65535;SDS011;52145;49.342;9.116;2023-02-28T19:18:15;17.88;;;10.20;;
65535;SDS011;52145;49.342;9.116;2023-02-28T19:20:41;19.27;;;11.85;;
65535;SDS011;52145;49.342;9.116;2023-02-28T19:23:07;19.80;;;11.63;;
65535;SDS011;52145;49.342;9.116;2023-02-28T19:25:38;20.13;;;11.07;;
65535;SDS011;52145;49.342;9.116;2023-02-28T19:28:05;20.33;;;10.45;;
65535;SDS011;52145;49.342;9.116;2023-02-28T19:30:30;18.45;;;10.68;;
65535;SDS011;52145;49.342;9.116;2023-02-28T19:32:56;20.77;;;11.25;;
65535;SDS011;52145;49.342;9.116;2023-02-28T19:35:21;18.58;;;9.95;;
65535;SDS011;52145;49.342;9.116;2023-02-28T19:37:47;17.90;;;10.35;;
65535;SDS011;52145;49.342;9.116;2023-02-28T19:40:12;18.45;;;9.88;;
65535;SDS011;52145;49.342;9.116;2023-02-28T19:42:38;18.85;;;9.68;;
65535;SDS011;52145;49.342;9.116;2023-02-28T19:45:04;16.10;;;9.93;;
65535;SDS011;52145;49.342;9.116;2023-02-28T19:47:30;16.95;;;9.73;;
65535;SDS011;52145;49.342;9.116;2023-02-28T19:49:56;17.27;;;9.82;;
65535;SDS011;52145;49.342;9.116;2023-02-28T19:52:22;19.77;;;10.52;;
65535;SDS011;52145;49.342;9.116;2023-02-28T19:54:48;17.52;;;9.45;;
65535;SDS011;52145;49.342;9.116;2023-02-28T19:57:15;17.92;;;10.23;;
65535;SDS011;52145;49.342;9.116;2023-02-28T19:59:40;16.60;;;10.38;;
65535;SDS011;52145;49.342;9.116;2023-02-28T20:02:13;18.85;;;9.23;;
65535;SDS011;52145;49.342;9.116;2023-02-28T20:04:40;15.90;;;9.20;;
65535;SDS011;52145;49.342;9.116;2023-02-28T20:07:06;18.65;;;10.02;;
65535;SDS011;52145;49.342;9.116;2023-02-28T20:09:32;18.08;;;10.85;;
65535;SDS011;52145;49.342;9.116;2023-02-28T20:11:58;17.77;;;10.52;;
65535;SDS011;52145;49.342;9.116;2023-02-28T20:14:24;18.88;;;10.57;;
65535;SDS011;52145;49.342;9.116;2023-02-28T20:16:50;18.92;;;10.88;;
65535;SDS011;52145;49.342;9.116;2023-02-28T20:19:15;17.80;;;10.23;;
65535;SDS011;52145;49.342;9.116;2023-02-28T20:21:42;21.98;;;12.10;;
65535;SDS011;52145;49.342;9.116;2023-02-28T20:24:08;21.38;;;11.18;;
65535;SDS011;52145;49.342;9.116;2023-02-28T20:26:34;24.83;;;10.80;;
65535;SDS011;52145;49.342;9.116;2023-02-28T20:29:01;18.80;;;10.95;;
65535;SDS011;52145;49.342;9.116;2023-02-28T20:31:26;17.33;;;9.27;;
65535;SDS011;52145;49.342;9.116;2023-02-28T20:33:54;17.70;;;10.35;;
65535;SDS011;52145;49.342;9.116;2023-02-28T20:36:20;16.98;;;9.43;;
65535;SDS011;52145;49.342;9.116;2023-02-28T20:38:46;16.25;;;9.50;;
65535;SDS011;52145;49.342;9.116;2023-02-28T20:41:12;15.73;;;9.02;;
65535;SDS011;52145;49.342;9.116;2023-02-28T20:43:38;16.73;;;9.30;;
65535;SDS011;52145;49.342;9.116;2023-02-28T20:46:05;19.27;;;9.70;;
65535;SDS011;52145;49.342;9.116;2023-02-28T20:48:31;16.23;;;9.73;;
65535;SDS011;52145;49.342;9.116;2023-02-28T20:50:58;16.88;;;9.32;;
65535;SDS011;52145;49.342;9.116;2023-02-28T20:53:24;16.70;;;9.35;;
65535;SDS011;52145;49.342;9.116;2023-02-28T20:55:54;21.45;;;11.45;;
65535;SDS011;52145;49.342;9.116;2023-02-28T20:58:22;16.10;;;10.05;;
65535;SDS011;52145;49.342;9.116;2023-02-28T21:00:49;18.60;;;10.30;;
65535;SDS011;52145;49.342;9.116;2023-02-28T21:03:14;18.20;;;9.80;;
65535;SDS011;52145;49.342;9.116;2023-02-28T21:05:40;18.15;;;10.07;;
65535;SDS011;52145;49.342;9.116;2023-02-28T21:08:05;17.38;;;9.52;;
65535;SDS011;52145;49.342;9.116;2023-02-28T21:10:31;17.60;;;10.23;;
65535;SDS011;52145;49.342;9.116;2023-02-28T21:12:57;16.65;;;9.63;;
65535;SDS011;52145;49.342;9.116;2023-02-28T21:15:23;19.13;;;10.05;;
65535;SDS011;52145;49.342;9.116;2023-02-28T21:17:49;20.63;;;10.10;;
65535;SDS011;52145;49.342;9.116;2023-02-28T21:20:14;18.98;;;9.65;;
65535;SDS011;52145;49.342;9.116;2023-02-28T21:22:46;19.88;;;9.95;;
65535;SDS011;52145;49.342;9.116;2023-02-28T21:25:12;18.55;;;9.80;;
65535;SDS011;52145;49.342;9.116;2023-02-28T21:27:38;17.58;;;8.73;;
65535;SDS011;52145;49.342;9.116;2023-02-28T21:30:05;14.35;;;8.80;;
65535;SDS011;52145;49.342;9.116;2023-02-28T21:32:31;17.35;;;9.10;;
65535;SDS011;52145;49.342;9.116;2023-02-28T21:34:57;15.13;;;8.63;;
65535;SDS011;52145;49.342;9.116;2023-02-28T21:37:23;14.48;;;9.07;;
65535;SDS011;52145;49.342;9.116;2023-02-28T21:39:48;16.40;;;9.52;;
65535;SDS011;52145;49.342;9.116;2023-02-28T21:42:14;15.93;;;9.10;;
65535;SDS011;52145;49.342;9.116;2023-02-28T21:44:40;17.02;;;9.52;;
65535;SDS011;52145;49.342;9.116;2023-02-28T21:47:05;14.80;;;8.90;;
65535;SDS011;52145;49.342;9.116;2023-02-28T21:49:31;15.07;;;8.18;;
65535;SDS011;52145;49.342;9.116;2023-02-28T21:51:56;16.58;;;9.02;;
65535;SDS011;52145;49.342;9.116;2023-02-28T21:54:22;16.35;;;9.43;;
65535;SDS011;52145;49.342;9.116;2023-02-28T21:56:48;15.15;;;8.57;;
65535;SDS011;52145;49.342;9.116;2023-02-28T21:59:17;17.63;;;9.02;;